createdAt,value
2023-01-31T00:00:21.862Z,8.70
2023-01-31T00:02:51.902Z,8.60
2023-01-31T00:05:22.510Z,9.00
2023-01-31T00:07:52.628Z,8.50
2023-01-31T00:10:25.268Z,8.60
2023-01-31T00:12:55.304Z,8.60
2023-01-31T00:15:25.335Z,7.70
2023-01-31T00:17:55.503Z,8.60
2023-01-31T00:20:25.643Z,8.60
2023-01-31T00:22:55.915Z,7.80
2023-01-31T00:25:28.541Z,8.50
2023-01-31T00:27:58.705Z,8.50
2023-01-31T00:30:29.139Z,8.70
2023-01-31T00:35:29.802Z,8.90
2023-01-31T00:38:00.384Z,8.70
2023-01-31T00:40:32.993Z,8.70
2023-01-31T00:43:02.996Z,8.40
2023-01-31T00:45:32.997Z,8.40
2023-01-31T00:48:03.043Z,8.40
2023-01-31T00:50:33.069Z,8.40
2023-01-31T00:53:03.281Z,8.30
2023-01-31T00:55:36.599Z,8.30
2023-01-31T00:58:07.046Z,8.30
2023-01-31T01:00:37.659Z,8.60
2023-01-31T01:03:07.723Z,8.10
2023-01-31T01:05:37.823Z,7.80
2023-01-31T01:08:08.291Z,8.20
2023-01-31T01:10:40.936Z,8.10
2023-01-31T01:13:11.013Z,8.20
2023-01-31T01:15:41.829Z,8.30
2023-01-31T01:18:11.883Z,8.40
2023-01-31T01:23:12.420Z,8.00
2023-01-31T01:25:48.907Z,8.00
2023-01-31T01:28:18.971Z,8.10
2023-01-31T01:30:48.950Z,8.10
2023-01-31T01:35:49.131Z,7.60
2023-01-31T01:38:21.299Z,8.00
2023-01-31T01:40:53.928Z,8.00
2023-01-31T01:43:24.028Z,8.10
2023-01-31T01:45:56.208Z,10.00
2023-01-31T01:48:33.918Z,7.80
2023-01-31T01:51:06.829Z,8.10
2023-01-31T01:53:40.253Z,7.90
2023-01-31T01:56:17.087Z,7.60
2023-01-31T01:58:51.437Z,8.20
2023-01-31T02:01:22.220Z,8.30
2023-01-31T02:03:54.908Z,7.40
2023-01-31T02:06:25.825Z,8.00
2023-01-31T02:08:57.371Z,7.90
2023-01-31T02:11:30.843Z,7.40
2023-01-31T02:14:04.445Z,7.70
2023-01-31T02:16:34.968Z,7.60
2023-01-31T02:19:05.441Z,7.60
2023-01-31T02:21:59.632Z,7.70
2023-01-31T02:24:59.426Z,7.90
2023-01-31T02:28:03.308Z,7.80
2023-01-31T02:30:59.279Z,7.80
2023-01-31T02:33:38.361Z,7.70
2023-01-31T02:36:21.348Z,7.60
2023-01-31T02:38:59.100Z,7.70
2023-01-31T02:41:36.694Z,7.40
2023-01-31T02:44:37.175Z,7.30
2023-01-31T02:47:19.472Z,7.20
2023-01-31T02:49:58.501Z,7.00
2023-01-31T02:52:35.441Z,7.40
2023-01-31T02:55:25.708Z,7.30
2023-01-31T02:57:58.794Z,7.40
2023-01-31T03:00:29.955Z,7.70
2023-01-31T03:03:01.005Z,7.40
2023-01-31T03:05:33.807Z,7.30
2023-01-31T03:08:08.083Z,7.30
2023-01-31T03:13:33.126Z,7.20
2023-01-31T03:16:24.751Z,7.00
2023-01-31T03:19:04.151Z,7.10
2023-01-31T03:21:42.748Z,7.20
2023-01-31T03:26:43.909Z,7.10
2023-01-31T03:29:16.807Z,7.40
2023-01-31T03:31:51.457Z,6.90
2023-01-31T03:34:22.142Z,7.10
2023-01-31T03:36:59.051Z,7.70
2023-01-31T03:39:40.536Z,7.20
2023-01-31T03:42:15.425Z,7.40
2023-01-31T03:44:50.387Z,6.90
2023-01-31T03:47:25.354Z,7.20
2023-01-31T03:49:57.563Z,8.20
2023-01-31T03:52:36.140Z,7.30
2023-01-31T03:55:12.294Z,7.40
2023-01-31T03:57:44.995Z,8.60
2023-01-31T04:00:18.425Z,7.20
2023-01-31T04:02:52.335Z,7.50
2023-01-31T04:05:30.638Z,7.20
2023-01-31T04:08:03.698Z,7.60
2023-01-31T04:10:34.007Z,7.40
2023-01-31T04:13:04.429Z,6.80
2023-01-31T04:15:34.440Z,7.30
2023-01-31T04:18:04.449Z,7.40
2023-01-31T04:20:34.544Z,6.50
2023-01-31T04:23:07.236Z,7.30
2023-01-31T04:28:07.888Z,6.80
2023-01-31T04:30:37.961Z,6.90
2023-01-31T04:33:07.999Z,6.60
2023-01-31T04:35:38.092Z,6.60
2023-01-31T04:38:11.145Z,6.70
2023-01-31T04:40:41.279Z,6.90
2023-01-31T04:43:12.277Z,6.90
2023-01-31T04:45:42.314Z,6.80
2023-01-31T04:50:43.539Z,4.90
2023-01-31T04:53:16.211Z,7.10
2023-01-31T04:55:46.304Z,6.10
2023-01-31T04:58:16.329Z,5.10
2023-01-31T05:00:47.341Z,6.70
2023-01-31T05:03:17.367Z,6.10
2023-01-31T05:05:47.432Z,7.60
2023-01-31T05:08:20.279Z,6.60
2023-01-31T05:10:50.368Z,7.60
2023-01-31T05:15:52.206Z,6.60
2023-01-31T05:18:22.213Z,6.70
2023-01-31T05:20:52.798Z,6.70
2023-01-31T05:23:25.400Z,6.60
2023-01-31T05:25:55.472Z,6.00
2023-01-31T05:28:26.136Z,6.70
2023-01-31T05:30:56.419Z,6.90
2023-01-31T05:33:29.271Z,7.00
2023-01-31T05:36:00.115Z,6.90
2023-01-31T05:38:33.461Z,7.00
2023-01-31T05:41:03.652Z,6.80
2023-01-31T05:43:36.060Z,6.60
2023-01-31T05:46:06.622Z,6.70
2023-01-31T05:48:37.030Z,7.40
2023-01-31T05:51:07.530Z,6.70
2023-01-31T05:53:40.164Z,6.60
2023-01-31T05:56:10.664Z,6.80
2023-01-31T05:58:40.680Z,6.70
2023-01-31T06:01:10.984Z,5.20
2023-01-31T06:03:40.979Z,7.00
2023-01-31T06:06:11.042Z,6.50
2023-01-31T06:08:44.697Z,7.40
2023-01-31T06:11:15.936Z,7.60
2023-01-31T06:13:46.387Z,6.90
2023-01-31T06:16:16.866Z,6.80
2023-01-31T06:18:46.955Z,6.50
2023-01-31T06:21:17.003Z,5.30
2023-01-31T06:23:49.669Z,6.70
2023-01-31T06:26:20.001Z,6.40
2023-01-31T06:28:50.087Z,6.80
2023-01-31T06:31:20.539Z,7.00
2023-01-31T06:33:50.862Z,7.00
2023-01-31T06:36:21.013Z,7.40
2023-01-31T06:38:56.859Z,7.10
2023-01-31T06:41:26.973Z,7.10
2023-01-31T06:43:57.570Z,7.10
2023-01-31T06:46:27.792Z,7.30
2023-01-31T06:48:57.897Z,7.10
2023-01-31T06:51:28.031Z,7.00
2023-01-31T06:54:00.756Z,7.20
2023-01-31T06:56:31.501Z,7.20
2023-01-31T06:59:01.732Z,7.20
2023-01-31T07:01:31.808Z,7.20
2023-01-31T07:04:04.215Z,7.10
2023-01-31T07:06:34.418Z,7.10
2023-01-31T07:09:07.474Z,7.10
2023-01-31T07:11:37.648Z,7.30
2023-01-31T07:14:07.726Z,7.50
2023-01-31T07:16:38.297Z,7.60
2023-01-31T07:19:08.333Z,7.40
2023-01-31T07:21:38.949Z,7.60
2023-01-31T07:24:12.388Z,7.80
2023-01-31T07:26:42.470Z,7.80
2023-01-31T07:29:13.122Z,7.70
2023-01-31T07:31:43.230Z,7.70
2023-01-31T07:34:13.292Z,7.50
2023-01-31T07:39:16.302Z,7.60
2023-01-31T07:41:46.666Z,7.70
2023-01-31T07:44:16.703Z,7.70
2023-01-31T07:46:46.789Z,7.80
2023-01-31T07:49:17.362Z,7.80
2023-01-31T07:51:48.164Z,8.40
2023-01-31T07:54:20.825Z,7.90
2023-01-31T07:56:51.029Z,7.90
2023-01-31T07:59:21.201Z,8.10
2023-01-31T08:02:03.644Z,8.10
2023-01-31T08:04:33.797Z,7.60
2023-01-31T08:07:05.916Z,8.10
2023-01-31T08:09:39.185Z,8.30
2023-01-31T08:12:09.674Z,8.30
2023-01-31T08:14:39.832Z,8.10
2023-01-31T08:17:10.016Z,8.20
2023-01-31T08:19:40.145Z,8.20
2023-01-31T08:22:10.614Z,8.00
2023-01-31T08:24:43.303Z,8.10
2023-01-31T08:27:13.379Z,8.10
2023-01-31T08:29:43.965Z,8.20
2023-01-31T08:32:14.192Z,8.30
2023-01-31T08:34:44.238Z,8.40
2023-01-31T08:37:15.795Z,8.40
2023-01-31T08:39:49.319Z,8.30
2023-01-31T08:42:19.379Z,8.40
2023-01-31T08:44:52.418Z,8.30
2023-01-31T08:47:22.559Z,8.70
2023-01-31T08:49:52.646Z,8.60
2023-01-31T08:52:22.714Z,8.30
2023-01-31T08:54:55.405Z,8.40
2023-01-31T08:57:25.441Z,8.40
2023-01-31T08:59:55.894Z,8.40
2023-01-31T09:02:26.107Z,8.00
2023-01-31T09:04:56.202Z,8.20
2023-01-31T09:07:26.296Z,8.20
2023-01-31T09:09:58.998Z,8.30
2023-01-31T09:12:30.088Z,8.40
2023-01-31T09:15:00.236Z,8.50
2023-01-31T09:17:30.313Z,8.50
2023-01-31T09:20:00.398Z,8.20
2023-01-31T09:22:34.533Z,8.30
2023-01-31T09:25:07.988Z,8.20
2023-01-31T09:27:39.645Z,9.10
2023-01-31T09:30:12.015Z,8.40
2023-01-31T09:32:42.957Z,8.40
2023-01-31T09:35:14.342Z,8.10
2023-01-31T09:37:45.345Z,8.10
2023-01-31T09:40:23.814Z,8.10
2023-01-31T09:42:57.199Z,8.30
2023-01-31T09:45:33.264Z,8.30
2023-01-31T09:48:04.907Z,8.60
2023-01-31T09:50:38.347Z,8.60
2023-01-31T09:53:08.711Z,8.90
2023-01-31T09:55:51.655Z,8.90
2023-01-31T09:58:29.816Z,9.10
2023-01-31T10:01:10.649Z,8.10
2023-01-31T10:03:54.324Z,9.00
2023-01-31T10:06:29.295Z,9.20
2023-01-31T10:09:06.015Z,9.80
2023-01-31T10:11:43.313Z,9.50
2023-01-31T10:14:25.147Z,9.30
2023-01-31T10:17:06.095Z,9.30
2023-01-31T10:19:43.003Z,9.30
2023-01-31T10:22:16.918Z,9.50
2023-01-31T10:24:51.805Z,9.90
2023-01-31T10:27:38.269Z,9.90
2023-01-31T10:30:19.794Z,10.20
2023-01-31T10:32:56.082Z,10.70
2023-01-31T10:35:31.864Z,10.90
2023-01-31T10:38:07.496Z,11.30
2023-01-31T10:40:40.551Z,10.70
2023-01-31T10:43:19.664Z,10.40
2023-01-31T10:45:50.093Z,10.00
2023-01-31T10:48:26.280Z,10.10
2023-01-31T10:51:10.963Z,10.40
2023-01-31T10:53:56.824Z,10.20
2023-01-31T10:56:32.567Z,10.40
2023-01-31T10:59:09.041Z,10.60
2023-01-31T11:01:39.181Z,10.70
2023-01-31T11:04:27.086Z,10.60
2023-01-31T11:06:57.671Z,10.50
2023-01-31T11:09:30.822Z,10.40
2023-01-31T11:12:03.039Z,10.20
2023-01-31T11:14:36.889Z,10.30
2023-01-31T11:17:11.192Z,10.30
2023-01-31T11:19:44.080Z,9.70
2023-01-31T11:22:25.338Z,10.30
2023-01-31T11:24:56.091Z,10.10
2023-01-31T11:27:30.979Z,10.30
2023-01-31T11:30:05.162Z,10.30
2023-01-31T11:32:39.112Z,10.30
2023-01-31T11:35:25.422Z,10.30
2023-01-31T11:37:57.097Z,10.30
2023-01-31T11:40:36.623Z,10.50
2023-01-31T11:43:08.171Z,10.60
2023-01-31T11:45:43.391Z,10.70
2023-01-31T11:48:21.343Z,10.70
2023-01-31T11:50:56.948Z,10.70
2023-01-31T11:53:29.951Z,10.80
2023-01-31T11:56:15.801Z,10.80
2023-01-31T11:58:48.463Z,11.00
2023-01-31T12:01:23.645Z,11.10
2023-01-31T12:04:03.030Z,11.10
2023-01-31T12:06:36.350Z,11.30
2023-01-31T12:09:09.025Z,11.40
2023-01-31T12:11:53.219Z,11.50
2023-01-31T12:14:25.271Z,11.50
2023-01-31T12:17:00.073Z,11.40
2023-01-31T12:19:41.722Z,11.40
2023-01-31T12:22:19.238Z,11.50
2023-01-31T12:25:00.384Z,11.50
2023-01-31T12:27:44.004Z,11.70
2023-01-31T12:30:29.304Z,11.50
2023-01-31T12:33:38.038Z,11.60
2023-01-31T12:36:24.091Z,11.50
2023-01-31T12:39:07.099Z,11.30
2023-01-31T12:41:43.536Z,11.30
2023-01-31T12:44:33.027Z,11.20
2023-01-31T12:47:29.373Z,11.20
2023-01-31T12:50:29.179Z,11.00
2023-01-31T12:53:31.800Z,11.20
2023-01-31T12:56:17.762Z,11.20
2023-01-31T12:59:14.776Z,11.30
2023-01-31T13:01:52.774Z,11.30
2023-01-31T13:04:36.877Z,11.30
2023-01-31T13:07:12.230Z,11.10
2023-01-31T13:09:45.605Z,11.00
2023-01-31T13:12:19.937Z,11.00
2023-01-31T13:14:54.851Z,10.80
2023-01-31T13:17:29.424Z,10.50
2023-01-31T13:20:02.754Z,10.50
2023-01-31T13:22:49.608Z,10.60
2023-01-31T13:25:28.435Z,10.60
2023-01-31T13:28:05.261Z,10.50
2023-01-31T13:30:42.968Z,10.50
2023-01-31T13:33:22.934Z,10.60
2023-01-31T13:36:04.305Z,10.60
2023-01-31T13:38:51.008Z,10.70
2023-01-31T13:41:29.527Z,11.30
2023-01-31T13:44:03.059Z,10.70
2023-01-31T13:46:37.990Z,10.60
2023-01-31T13:49:11.218Z,10.60
2023-01-31T13:51:45.419Z,10.60
2023-01-31T13:54:22.725Z,10.80
2023-01-31T13:56:57.866Z,10.90
2023-01-31T13:59:32.499Z,10.90
2023-01-31T14:02:05.934Z,10.90
2023-01-31T14:04:40.273Z,11.10
2023-01-31T14:07:24.007Z,11.40
2023-01-31T14:10:24.091Z,11.60
2023-01-31T14:13:26.800Z,11.60
2023-01-31T14:15:59.378Z,11.40
2023-01-31T14:18:40.012Z,11.30
2023-01-31T14:21:47.610Z,11.50
2023-01-31T14:24:39.791Z,11.70
2023-01-31T14:30:30.238Z,12.00
2023-01-31T14:33:34.326Z,11.70
2023-01-31T14:36:30.721Z,11.60
2023-01-31T14:39:42.167Z,12.00
2023-01-31T14:42:44.497Z,11.70
2023-01-31T14:49:06.348Z,11.90
2023-01-31T14:51:53.722Z,11.90
2023-01-31T14:54:49.052Z,12.00
2023-01-31T14:57:31.324Z,12.10
2023-01-31T15:00:04.264Z,12.00
2023-01-31T15:02:59.868Z,12.00
2023-01-31T15:05:55.813Z,12.10
2023-01-31T15:08:42.772Z,12.20
2023-01-31T15:11:43.112Z,12.30
2023-01-31T15:14:35.123Z,12.40
2023-01-31T15:17:27.339Z,12.30
2023-01-31T15:20:18.397Z,12.40
2023-01-31T15:22:49.750Z,12.40
2023-01-31T15:25:34.175Z,12.40
2023-01-31T15:28:06.736Z,11.80
2023-01-31T15:30:41.395Z,12.30
2023-01-31T15:33:19.132Z,12.50
2023-01-31T15:35:54.992Z,12.40
2023-01-31T15:38:35.185Z,12.30
2023-01-31T15:41:22.963Z,12.20
2023-01-31T15:43:55.928Z,12.30
2023-01-31T15:46:30.769Z,12.50
2023-01-31T15:49:04.637Z,12.30
2023-01-31T15:51:41.964Z,12.10
2023-01-31T15:54:22.277Z,12.00
2023-01-31T15:56:53.090Z,12.20
2023-01-31T15:59:23.715Z,12.10
2023-01-31T16:02:01.376Z,12.00
2023-01-31T16:04:35.867Z,12.00
2023-01-31T16:07:11.362Z,12.00
2023-01-31T16:12:13.468Z,12.00
2023-01-31T16:14:46.338Z,11.90
2023-01-31T16:17:17.047Z,11.90
2023-01-31T16:19:51.683Z,11.90
2023-01-31T16:22:31.884Z,12.00
2023-01-31T16:25:03.893Z,12.10
2023-01-31T16:27:38.612Z,12.00
2023-01-31T16:30:10.169Z,12.10
2023-01-31T16:32:44.698Z,12.10
2023-01-31T16:35:25.312Z,12.40
2023-01-31T16:38:08.196Z,11.60
2023-01-31T16:40:48.034Z,12.20
2023-01-31T16:43:25.158Z,12.10
2023-01-31T16:45:57.006Z,12.20
2023-01-31T16:48:29.524Z,12.40
2023-01-31T16:51:01.074Z,12.40
2023-01-31T16:53:40.180Z,12.40
2023-01-31T16:56:25.128Z,12.50
2023-01-31T16:58:57.624Z,12.20
2023-01-31T17:01:30.638Z,12.10
2023-01-31T17:04:17.566Z,12.10
2023-01-31T17:06:53.248Z,12.10
2023-01-31T17:09:27.311Z,11.70
2023-01-31T17:14:30.028Z,11.80
2023-01-31T17:17:04.692Z,11.90
2023-01-31T17:19:37.467Z,11.80
2023-01-31T17:22:20.057Z,11.70
2023-01-31T17:24:53.075Z,11.60
2023-01-31T17:27:25.167Z,11.70
2023-01-31T17:29:55.628Z,11.70
2023-01-31T17:32:40.469Z,11.80
2023-01-31T17:35:21.246Z,11.80
2023-01-31T17:37:51.786Z,11.70
2023-01-31T17:40:24.952Z,11.60
2023-01-31T17:43:00.133Z,11.70
2023-01-31T17:45:34.042Z,11.70
2023-01-31T17:48:04.806Z,11.50
2023-01-31T17:50:36.152Z,11.40
2023-01-31T17:53:06.275Z,11.40
2023-01-31T17:55:39.006Z,11.50
2023-01-31T17:58:09.137Z,11.40
2023-01-31T18:00:39.232Z,11.50
2023-01-31T18:03:11.300Z,11.40
2023-01-31T18:05:41.655Z,11.30
2023-01-31T18:10:45.668Z,11.40
2023-01-31T18:13:15.803Z,11.40
2023-01-31T18:15:45.951Z,11.20
2023-01-31T18:18:16.044Z,11.30
2023-01-31T18:20:52.293Z,11.30
2023-01-31T18:23:22.370Z,11.30
2023-01-31T18:25:55.116Z,11.30
2023-01-31T18:28:26.845Z,12.70
2023-01-31T18:30:57.056Z,11.40
2023-01-31T18:33:27.220Z,11.40
2023-01-31T18:36:01.120Z,11.30
2023-01-31T18:38:32.446Z,11.30
2023-01-31T18:41:08.372Z,11.30
2023-01-31T18:43:38.589Z,11.40
2023-01-31T18:46:21.371Z,11.30
2023-01-31T18:51:21.956Z,11.40
2023-01-31T18:56:36.679Z,11.40
2023-01-31T18:59:06.464Z,11.30
2023-01-31T19:01:37.975Z,11.30
2023-01-31T19:04:08.407Z,11.20
2023-01-31T19:06:41.205Z,11.30
2023-01-31T19:09:15.375Z,11.30
2023-01-31T19:11:48.432Z,11.20
2023-01-31T19:14:19.232Z,11.20
2023-01-31T19:16:49.434Z,11.10
2023-01-31T19:19:20.585Z,11.10
2023-01-31T19:24:21.122Z,11.20
2023-01-31T19:27:03.068Z,11.20
2023-01-31T19:29:34.689Z,11.20
2023-01-31T19:34:36.686Z,11.00
2023-01-31T19:37:06.991Z,11.10
2023-01-31T19:39:37.505Z,11.10
2023-01-31T19:42:10.556Z,11.00
2023-01-31T19:44:40.706Z,11.00
2023-01-31T19:47:11.011Z,10.90
2023-01-31T19:49:41.113Z,11.00
2023-01-31T19:52:11.373Z,11.00
2023-01-31T19:54:41.526Z,10.70
2023-01-31T19:57:14.581Z,11.10
2023-01-31T19:59:46.693Z,11.00
2023-01-31T20:02:18.105Z,11.00
2023-01-31T20:04:48.680Z,10.90
2023-01-31T20:10:03.175Z,10.90
2023-01-31T20:12:36.061Z,11.00
2023-01-31T20:15:06.425Z,10.80
2023-01-31T20:17:42.669Z,10.70
2023-01-31T20:20:14.174Z,10.70
2023-01-31T20:22:44.269Z,10.70
2023-01-31T20:25:14.533Z,10.60
2023-01-31T20:27:49.857Z,10.70
2023-01-31T20:30:22.053Z,10.80
2023-01-31T20:32:52.551Z,10.60
2023-01-31T20:35:22.644Z,10.70
2023-01-31T20:40:23.582Z,10.60
2023-01-31T20:42:56.621Z,10.60
2023-01-31T20:45:29.177Z,10.10
2023-01-31T20:48:00.109Z,10.50
2023-01-31T20:50:30.420Z,10.50
2023-01-31T20:53:00.634Z,10.60
2023-01-31T20:55:30.826Z,10.50
2023-01-31T20:58:03.623Z,10.60
2023-01-31T21:00:33.749Z,10.60
2023-01-31T21:03:04.086Z,10.60
2023-01-31T21:05:38.638Z,10.40
2023-01-31T21:08:09.379Z,10.20
2023-01-31T21:10:40.860Z,10.10
2023-01-31T21:13:13.495Z,10.00
2023-01-31T21:15:43.531Z,10.00
2023-01-31T21:18:13.733Z,9.90
2023-01-31T21:20:43.955Z,10.20
2023-01-31T21:23:14.221Z,10.20
2023-01-31T21:25:44.344Z,10.20
2023-01-31T21:28:17.045Z,10.20
2023-01-31T21:30:47.546Z,10.20
2023-01-31T21:33:17.698Z,10.30
2023-01-31T21:35:47.711Z,10.30
2023-01-31T21:38:17.906Z,10.30
2023-01-31T21:40:48.105Z,10.30
2023-01-31T21:43:18.262Z,10.30
2023-01-31T21:45:49.463Z,10.30
2023-01-31T21:48:32.128Z,10.10
2023-01-31T21:51:07.621Z,10.30
2023-01-31T21:53:38.119Z,10.00
2023-01-31T21:56:10.505Z,9.80
2023-01-31T21:58:43.805Z,9.90
2023-01-31T22:01:18.005Z,10.00
2023-01-31T22:03:50.951Z,10.10
2023-01-31T22:06:23.604Z,10.10
2023-01-31T22:08:55.176Z,10.10
2023-01-31T22:11:25.974Z,10.10
2023-01-31T22:13:58.646Z,10.20
2023-01-31T22:16:29.160Z,10.30
2023-01-31T22:18:59.297Z,10.40
2023-01-31T22:21:31.758Z,10.30
2023-01-31T22:24:03.452Z,10.40
2023-01-31T22:26:35.772Z,10.40
2023-01-31T22:29:15.343Z,11.50
2023-01-31T22:31:45.653Z,10.40
2023-01-31T22:34:17.102Z,10.40
2023-01-31T22:36:47.278Z,10.30
2023-01-31T22:39:17.695Z,10.20
2023-01-31T22:44:20.858Z,10.30
2023-01-31T22:46:50.967Z,10.40
2023-01-31T22:49:21.374Z,10.20
2023-01-31T22:51:51.433Z,10.10
2023-01-31T22:54:24.326Z,10.20
2023-01-31T22:56:54.426Z,10.10
2023-01-31T22:59:27.173Z,10.00
2023-01-31T23:01:57.365Z,9.90
2023-01-31T23:04:27.680Z,9.80
2023-01-31T23:06:57.764Z,9.90
2023-01-31T23:09:27.862Z,9.80
2023-01-31T23:11:58.079Z,9.70
2023-01-31T23:14:30.806Z,9.70
2023-01-31T23:17:13.188Z,9.50
2023-01-31T23:19:43.481Z,9.00
2023-01-31T23:22:13.560Z,9.40
2023-01-31T23:24:49.680Z,9.40
2023-01-31T23:27:19.731Z,9.40
2023-01-31T23:29:52.492Z,9.30
2023-01-31T23:32:22.653Z,9.30
2023-01-31T23:34:55.840Z,9.30
2023-01-31T23:37:28.641Z,9.50
2023-01-31T23:39:58.701Z,9.50
2023-01-31T23:42:29.187Z,9.40
2023-01-31T23:45:01.923Z,9.30
2023-01-31T23:47:32.037Z,8.60
2023-01-31T23:50:02.241Z,9.30
2023-01-31T23:52:32.252Z,9.20
2023-01-31T23:55:02.298Z,9.30
2023-01-31T23:57:32.372Z,9.30
